Traer, IA (50675)

7:07 PM CDT on September 30, 2016 (GMT -0500)
5th street | | Change Station
Active Advisory: Flood Warning

Elev 935 ft 42.19 °N, 92.47 °W | Updated 8 seconds ago

Overcast
Overcast
62.6 °F
Feels Like 62.6 °F
N
0.0
Wind Variable Wind from NNW
Gusts 0.0 mph

Today
High -- | Low -- °F
--% Chance of Precip.
Yesterday
High -- | Low -- °F
Precip. -- in
Pressure 30.17 in
Visibility 10.0 miles
Clouds Overcast 2600 ft
Dew Point 56 °F
Humidity 79%
Rainfall 0.00 in
Snow Depth Not available.
7:06 AM 6:52 PM
New Moon, 0% visible
METAR KMIW 302353Z AUTO 05007KT 10SM OVC026 17/13 A3017 RMK AO2 SLP216 T01670133 10178 20167 56003
Pressure 30.17 in
Visibility 10.0 miles
Clouds Overcast 2600 ft
Dew Point 56 °F
Humidity 79%
Rainfall 0.00 in
Snow Depth Not available.
7:06 AM 6:52 PM
New Moon, 0% visible
METAR KMIW 302353Z AUTO 05007KT 10SM OVC026 17/13 A3017 RMK AO2 SLP216 T01670133 10178 20167 56003

10-Day Weather Forecast

Almanac

Astronomy

Sep. 30, 2016 Rise Set
Actual Time
Civil Twilight
Nautical Twilight
Astronomical Twilight
Moon
Length of Visible Light
Length of Day
Tomorrow will be .
, % of the Moon is Illuminated

Today's Extremes

State Highs State Lows

Community

WunderPhotos

Upload Photos

1,942,829 photos uploaded!

WunderBlog® & News

Nearby

Air Quality

  Air Quality AQ Index Pollutant
Not available.

Snow Depth

Station Depth Elevation

Earthquake Activity

City Distance Mag. Time & Date
Minimum magnitude displayed is 2.5.

Coastal Water Temperatures

Place Temperature

Stations

Nearby Weather Stations

Station Location Temp. Windchill Dew Point Humidity Wind Precip. Elev Updated Type
                   

Watches & Warnings

Flood Warning
Issued: 4:13 PM CDT Sep. 30, 2016 – National Weather Service

... Flood Warning remains in effect until late Sunday evening...

The Flood Warning continues for
the Iowa river near Tama Hwy e49... or from Timber Creek near Le
Grand... to Salt Creek near Belle Plaine.
* Until late Sunday evening.
* At 4:00 PM Friday the stage was 13.2 feet... or 0.7 feet above
flood stage.
* Flood stage is 12.5 feet.
* Moderate flooding is occurring and is forecast to continue.
* Forecast... continue falling and go below flood stage late Sunday
evening.
* Impact... at 13.3 feet... water affects 360th street near the
intersection with S Avenue... or 1 1/4 miles west of Chelsea. The
city of Chelsea is inaccessible from the south. Highway e49 is
down to one Lane near the Iowa river in the Chelsea area.


Lat... Lon 4200 9277 4205 9277 4190 9230 4186 9230
      4200 9277


Fab